Time;durP1;ratioP1;P1;durP2;ratioP2;P2;SDS_P1;SDS_P2;PMS_P1;PMS_P2;Temp;Humidity;BMP_temperature;BMP_pressure;BME280_temperature;BME280_humidity;BME280_pressure;Samples;Min_cycle;Max_cycle;Signal;HPM_P1;HPM_P2
2021/06/07 00:01:00;;;;;;;7.80;4.03;;;;;;;;;;5102461;27;20729;-69
2021/06/07 00:05:02;;;;;;;11.18;6.35;;;;;;;;;;5125926;27;20369;-69
2021/06/07 00:07:28;;;;;;;13.68;6.22;;;;;;;;;;5110591;28;20115;-69
2021/06/07 00:11:40;;;;;;;14.05;5.90;;;;;;;;;;5126104;27;20718;-69
2021/06/07 00:14:06;;;;;;;10.40;5.93;;;;;;;;;;5109208;28;20631;-69
2021/06/07 00:16:33;;;;;;;11.60;6.05;;;;;;;;;;5110447;28;20069;-69
2021/06/07 00:18:59;;;;;;;9.75;5.82;;;;;;;;;;5110394;28;20016;-69
2021/06/07 00:21:27;;;;;;;12.95;7.72;;;;;;;;;;5110515;28;20044;-69
2021/06/07 00:24:21;;;;;;;16.60;7.70;;;;;;;;;;5126032;27;20369;-69
2021/06/07 00:27:57;;;;;;;18.30;10.35;;;;;;;;;;5126517;27;20384;-69
2021/06/07 00:30:23;;;;;;;20.05;11.13;;;;;;;;;;5109566;28;20492;-69
2021/06/07 00:32:50;;;;;;;19.40;10.95;;;;;;;;;;5110132;28;20074;-69
2021/06/07 00:35:18;;;;;;;21.95;11.57;;;;;;;;;;5110485;28;20024;-69
2021/06/07 00:37:44;;;;;;;17.77;9.35;;;;;;;;;;5109205;28;20054;-69
2021/06/07 00:40:10;;;;;;;16.98;8.95;;;;;;;;;;5108944;28;20031;-69
2021/06/07 00:44:01;;;;;;;14.90;6.93;;;;;;;;;;5126375;27;20376;-69
2021/06/07 00:46:28;;;;;;;10.25;5.55;;;;;;;;;;5108847;28;20024;-69
2021/06/07 00:52:21;;;;;;;15.75;7.97;;;;;;;;;;5126360;27;20383;-69
2021/06/07 00:54:47;;;;;;;15.32;7.13;;;;;;;;;;5110993;28;20340;-69
2021/06/07 00:57:13;;;;;;;18.95;7.88;;;;;;;;;;5109245;28;20023;-69
2021/06/07 00:59:39;;;;;;;15.35;8.80;;;;;;;;;;5110226;28;20024;-69
2021/06/07 01:03:56;;;;;;;14.18;7.35;;;;;;;;;;5126368;27;20729;-69
2021/06/07 01:06:22;;;;;;;13.18;7.93;;;;;;;;;;5110469;28;20077;-69
2021/06/07 01:10:50;;;;;;;13.50;7.93;;;;;;;;;;5126624;27;20404;-69
2021/06/07 01:13:17;;;;;;;13.07;7.90;;;;;;;;;;5110444;28;20483;-69
2021/06/07 01:15:43;;;;;;;13.23;8.07;;;;;;;;;;5110380;28;20463;-68
2021/06/07 01:18:21;;;;;;;14.50;8.65;;;;;;;;;;5126456;27;20400;-69
2021/06/07 01:20:50;;;;;;;15.48;7.80;;;;;;;;;;5110313;28;20433;-69
2021/06/07 01:23:16;;;;;;;11.82;7.05;;;;;;;;;;5110554;28;20048;-68
2021/06/07 01:25:43;;;;;;;15.30;6.60;;;;;;;;;;5110461;28;20041;-68
2021/06/07 01:28:10;;;;;;;10.90;5.80;;;;;;;;;;5110004;28;20026;-69
2021/06/07 01:30:38;;;;;;;8.82;5.35;;;;;;;;;;5109117;28;20382;-68
2021/06/07 01:33:06;;;;;;;11.90;5.47;;;;;;;;;;5110292;28;20024;-69
2021/06/07 01:35:32;;;;;;;7.35;4.78;;;;;;;;;;5109902;28;20407;-69
2021/06/07 01:37:58;;;;;;;8.40;5.03;;;;;;;;;;5110479;28;20036;-69
2021/06/07 01:41:42;;;;;;;7.70;5.20;;;;;;;;;;5126239;27;20876;-69
2021/06/07 01:44:08;;;;;;;16.05;6.85;;;;;;;;;;5110515;28;20098;-69
2021/06/07 01:46:34;;;;;;;10.95;6.93;;;;;;;;;;5110515;28;20413;-68
2021/06/07 01:49:00;;;;;;;22.27;11.05;;;;;;;;;;5110081;28;20016;-69
2021/06/07 01:51:27;;;;;;;36.50;19.33;;;;;;;;;;5110386;28;20026;-69
2021/06/07 01:53:53;;;;;;;39.50;22.77;;;;;;;;;;5110335;28;20035;-69
2021/06/07 01:59:42;;;;;;;38.67;21.65;;;;;;;;;;5126656;27;20841;-69
2021/06/07 02:04:10;;;;;;;34.28;18.02;;;;;;;;;;5125991;27;20377;-68
2021/06/07 02:06:36;;;;;;;28.63;17.10;;;;;;;;;;5110508;28;20107;-70
2021/06/07 02:09:03;;;;;;;33.75;17.70;;;;;;;;;;5109130;28;20028;-70
2021/06/07 02:15:43;;;;;;;20.88;11.57;;;;;;;;;;5126466;27;20377;-69
2021/06/07 02:18:11;;;;;;;25.70;13.55;;;;;;;;;;5110133;28;20431;-69
2021/06/07 02:20:38;;;;;;;20.70;12.27;;;;;;;;;;5109397;28;20111;-68
2021/06/07 02:24:47;;;;;;;31.15;14.75;;;;;;;;;;5126037;27;20373;-68
2021/06/07 02:27:13;;;;;;;25.48;12.77;;;;;;;;;;5109229;28;20118;-68
2021/06/07 02:29:40;;;;;;;25.00;13.93;;;;;;;;;;5109181;28;20023;-68
2021/06/07 02:32:06;;;;;;;23.00;12.30;;;;;;;;;;5110036;28;20099;-69
2021/06/07 02:34:56;;;;;;;18.27;11.30;;;;;;;;;;5126375;27;20460;-69
2021/06/07 02:37:22;;;;;;;23.15;11.55;;;;;;;;;;5110537;28;20535;-69
2021/06/07 02:39:49;;;;;;;18.98;9.77;;;;;;;;;;5110187;28;20016;-69
2021/06/07 02:43:08;;;;;;;25.15;12.48;;;;;;;;;;5133534;27;20164;-69
2021/06/07 02:45:35;;;;;;;20.40;9.98;;;;;;;;;;5130650;28;20034;-69
2021/06/07 02:48:01;;;;;;;17.10;9.98;;;;;;;;;;5131080;28;20023;-69
2021/06/07 02:50:29;;;;;;;15.98;8.20;;;;;;;;;;5130947;28;20045;-69
2021/06/07 02:52:56;;;;;;;17.58;7.85;;;;;;;;;;5130471;28;20050;-69
2021/06/07 02:56:12;;;;;;;14.82;6.95;;;;;;;;;;5126382;27;20373;-69
2021/06/07 03:02:35;;;;;;;16.63;8.75;;;;;;;;;;5126540;27;20381;-69
2021/06/07 03:05:01;;;;;;;16.58;9.68;;;;;;;;;;5110545;28;20154;-69
2021/06/07 03:09:17;;;;;;;16.42;9.70;;;;;;;;;;5126411;27;20384;-69
2021/06/07 03:11:43;;;;;;;20.45;10.65;;;;;;;;;;5109203;28;20047;-69
2021/06/07 03:14:09;;;;;;;14.52;9.30;;;;;;;;;;5110016;28;20016;-69
2021/06/07 03:18:11;;;;;;;14.82;8.10;;;;;;;;;;5126271;27;20385;-68
2021/06/07 03:20:38;;;;;;;16.50;7.50;;;;;;;;;;5110171;28;20501;-69
2021/06/07 03:23:11;;;;;;;13.75;7.55;;;;;;;;;;5110577;28;20459;-69
2021/06/07 03:25:38;;;;;;;12.82;7.88;;;;;;;;;;5109240;28;20055;-69
2021/06/07 03:29:39;;;;;;;12.38;7.22;;;;;;;;;;5126399;27;20381;-69
2021/06/07 03:32:05;;;;;;;13.20;7.25;;;;;;;;;;5110503;28;20089;-69
2021/06/07 03:34:31;;;;;;;12.70;7.32;;;;;;;;;;5110140;28;20403;-69
2021/06/07 03:36:58;;;;;;;10.93;6.72;;;;;;;;;;5109212;28;20091;-69
2021/06/07 03:40:16;;;;;;;10.52;6.80;;;;;;;;;;5126523;27;20369;-69
2021/06/07 03:42:42;;;;;;;14.02;6.72;;;;;;;;;;5109020;28;20028;-69
2021/06/07 03:45:09;;;;;;;12.68;5.72;;;;;;;;;;5110628;28;20019;-69
2021/06/07 03:48:09;;;;;;;10.25;6.28;;;;;;;;;;5126345;27;20369;-69
2021/06/07 03:50:36;;;;;;;14.02;7.25;;;;;;;;;;5110319;28;20028;-69
2021/06/07 03:53:03;;;;;;;13.48;7.25;;;;;;;;;;5110489;28;20026;-69
2021/06/07 03:55:29;;;;;;;15.25;7.25;;;;;;;;;;5108790;28;20081;-69
2021/06/07 03:57:56;;;;;;;12.55;6.38;;;;;;;;;;5109096;28;20024;-69
2021/06/07 04:00:24;;;;;;;14.15;5.82;;;;;;;;;;5109026;28;20111;-69
2021/06/07 04:02:50;;;;;;;9.52;6.18;;;;;;;;;;5108732;28;20038;-69
2021/06/07 04:05:17;;;;;;;10.70;6.15;;;;;;;;;;5110336;28;20026;-69
2021/06/07 04:09:28;;;;;;;7.85;5.55;;;;;;;;;;5126053;27;20377;-69
2021/06/07 04:11:54;;;;;;;9.57;6.07;;;;;;;;;;5110527;28;20036;-69
2021/06/07 04:14:21;;;;;;;7.65;5.13;;;;;;;;;;5109090;28;20031;-69
2021/06/07 04:17:04;;;;;;;9.38;5.20;;;;;;;;;;5126014;27;20377;-69
2021/06/07 04:19:30;;;;;;;8.95;5.78;;;;;;;;;;5110505;28;20032;-69
2021/06/07 04:24:04;;;;;;;12.30;7.40;;;;;;;;;;5126159;27;20565;-69
2021/06/07 04:28:25;;;;;;;12.73;7.70;;;;;;;;;;5126406;27;20373;-69
2021/06/07 04:32:13;;;;;;;12.73;8.45;;;;;;;;;;5126014;27;20381;-69
2021/06/07 04:34:40;;;;;;;14.75;8.70;;;;;;;;;;5110536;28;20052;-69
2021/06/07 04:37:06;;;;;;;15.98;8.48;;;;;;;;;;5109182;28;20103;-69
2021/06/07 04:39:32;;;;;;;15.15;8.20;;;;;;;;;;5110087;28;20073;-69
2021/06/07 04:41:59;;;;;;;19.02;9.32;;;;;;;;;;5110571;28;20016;-69
2021/06/07 04:44:25;;;;;;;20.13;10.20;;;;;;;;;;5109062;28;20020;-68
2021/06/07 04:46:51;;;;;;;19.55;10.30;;;;;;;;;;5110233;28;20020;-68
2021/06/07 04:49:17;;;;;;;13.35;7.78;;;;;;;;;;5110276;28;20027;-69
2021/06/07 04:53:37;;;;;;;17.38;9.00;;;;;;;;;;5125986;27;20373;-68
2021/06/07 04:56:03;;;;;;;19.70;10.15;;;;;;;;;;5110531;28;20028;-69
2021/06/07 04:58:30;;;;;;;15.32;10.05;;;;;;;;;;5108893;28;20024;-69
2021/06/07 05:00:58;;;;;;;15.20;9.32;;;;;;;;;;5109246;28;20016;-68
2021/06/07 05:05:22;;;;;;;14.73;7.88;;;;;;;;;;5126270;27;20385;-67
2021/06/07 05:07:48;;;;;;;14.75;8.63;;;;;;;;;;5110022;28;20036;-67
2021/06/07 05:12:28;;;;;;;19.52;10.52;;;;;;;;;;5133283;27;20111;-67
2021/06/07 05:16:33;;;;;;;21.77;10.60;;;;;;;;;;5126364;27;20603;-67
2021/06/07 05:19:00;;;;;;;16.63;9.75;;;;;;;;;;5106379;28;20020;-67
2021/06/07 05:21:26;;;;;;;18.58;11.25;;;;;;;;;;5109006;28;20020;-67
2021/06/07 05:24:32;;;;;;;16.50;9.77;;;;;;;;;;5124261;27;20369;-68
2021/06/07 05:26:58;;;;;;;18.33;11.23;;;;;;;;;;5103685;28;20031;-71
2021/06/07 05:29:25;;;;;;;17.80;9.63;;;;;;;;;;5088934;28;20857;-71
2021/06/07 05:31:51;;;;;;;18.23;10.05;;;;;;;;;;5105001;28;20114;-71
2021/06/07 05:34:17;;;;;;;12.85;8.10;;;;;;;;;;5108606;28;20016;-71
2021/06/07 05:36:43;;;;;;;13.48;8.20;;;;;;;;;;5108833;28;20020;-70
2021/06/07 05:39:12;;;;;;;10.13;6.57;;;;;;;;;;5108524;28;20019;-72
2021/06/07 05:41:38;;;;;;;10.60;6.38;;;;;;;;;;5106846;28;20032;-73
2021/06/07 05:44:04;;;;;;;11.90;5.90;;;;;;;;;;5109727;28;20032;-73
2021/06/07 05:46:30;;;;;;;10.90;5.85;;;;;;;;;;5108380;28;20466;-73
2021/06/07 05:51:01;;;;;;;12.13;8.50;;;;;;;;;;5117907;27;20888;-73
2021/06/07 05:53:27;;;;;;;12.60;7.63;;;;;;;;;;5106783;28;20020;-72
2021/06/07 05:55:53;;;;;;;12.63;7.68;;;;;;;;;;5108504;28;20031;-68
2021/06/07 05:58:50;;;;;;;9.50;6.32;;;;;;;;;;5126058;27;20380;-69
2021/06/07 06:01:16;;;;;;;12.25;8.05;;;;;;;;;;5110371;28;20024;-67
2021/06/07 06:03:42;;;;;;;11.85;6.95;;;;;;;;;;5108495;28;20051;-68
2021/06/07 06:06:08;;;;;;;12.30;6.03;;;;;;;;;;5110362;28;20016;-69
2021/06/07 06:08:34;;;;;;;8.10;5.68;;;;;;;;;;5104858;28;20008;-68
2021/06/07 06:11:01;;;;;;;8.30;5.40;;;;;;;;;;5109092;28;20107;-68
2021/06/07 06:13:27;;;;;;;8.90;5.85;;;;;;;;;;5109785;28;20484;-68
2021/06/07 06:15:54;;;;;;;10.95;5.45;;;;;;;;;;5109455;28;20031;-68
2021/06/07 06:18:20;;;;;;;9.85;5.97;;;;;;;;;;5108322;28;20032;-68
2021/06/07 06:20:46;;;;;;;9.43;5.20;;;;;;;;;;5108813;28;20091;-68
2021/06/07 06:23:12;;;;;;;10.32;5.50;;;;;;;;;;5109468;28;20050;-70
2021/06/07 06:25:39;;;;;;;7.45;5.45;;;;;;;;;;5108214;28;20020;-69
2021/06/07 06:28:05;;;;;;;9.98;5.50;;;;;;;;;;5105124;28;20027;-68
2021/06/07 06:30:31;;;;;;;8.40;6.05;;;;;;;;;;5107318;28;20496;-71
2021/06/07 06:32:59;;;;;;;10.45;7.05;;;;;;;;;;5109403;28;20028;-69
2021/06/07 06:35:26;;;;;;;8.80;5.30;;;;;;;;;;5109306;28;20051;-69
2021/06/07 06:37:52;;;;;;;8.70;5.18;;;;;;;;;;5107647;28;20039;-69
2021/06/07 06:40:22;;;;;;;7.03;4.85;;;;;;;;;;5109279;28;20091;-68
2021/06/07 06:43:56;;;;;;;10.50;4.90;;;;;;;;;;5126013;27;20856;-68
2021/06/07 06:46:22;;;;;;;7.70;5.65;;;;;;;;;;5108647;28;20540;-68
2021/06/07 06:48:48;;;;;;;7.43;4.63;;;;;;;;;;5108650;28;20038;-67
2021/06/07 06:51:14;;;;;;;8.27;5.38;;;;;;;;;;5107920;28;20041;-68
2021/06/07 06:53:41;;;;;;;8.48;5.30;;;;;;;;;;5108285;28;20070;-68
2021/06/07 06:56:07;;;;;;;15.90;6.57;;;;;;;;;;5107676;28;20020;-68
2021/06/07 06:58:33;;;;;;;8.02;5.43;;;;;;;;;;5089257;28;20021;-69
2021/06/07 07:01:09;;;;;;;13.48;6.93;;;;;;;;;;5126276;27;20801;-69
2021/06/07 07:03:35;;;;;;;8.60;5.30;;;;;;;;;;5110172;28;20052;-68
2021/06/07 07:06:01;;;;;;;8.95;5.63;;;;;;;;;;5109269;28;20088;-67
2021/06/07 07:08:29;;;;;;;10.32;5.88;;;;;;;;;;5110003;28;20058;-70
2021/06/07 07:10:56;;;;;;;9.27;5.45;;;;;;;;;;5109674;28;20027;-68
2021/06/07 07:13:22;;;;;;;11.10;5.50;;;;;;;;;;5107072;28;20020;-68
2021/06/07 07:15:49;;;;;;;11.25;6.22;;;;;;;;;;5106508;28;20368;-70
2021/06/07 07:18:15;;;;;;;11.25;6.18;;;;;;;;;;5108896;28;20395;-69
2021/06/07 07:20:42;;;;;;;9.48;5.38;;;;;;;;;;5108772;28;20043;-69
2021/06/07 07:23:09;;;;;;;9.88;5.25;;;;;;;;;;5108430;28;20065;-68
2021/06/07 07:25:48;;;;;;;8.00;5.50;;;;;;;;;;5125829;27;20380;-67
2021/06/07 07:28:14;;;;;;;10.80;5.65;;;;;;;;;;5109559;28;20910;-68
2021/06/07 07:31:18;;;;;;;9.75;6.05;;;;;;;;;;5124246;27;20388;-67
2021/06/07 07:34:29;;;;;;;7.18;5.35;;;;;;;;;;5128376;27;20107;-67
2021/06/07 07:36:55;;;;;;;8.82;5.32;;;;;;;;;;5129221;28;20034;-68
2021/06/07 07:39:21;;;;;;;9.05;5.60;;;;;;;;;;5122835;27;20064;-67
2021/06/07 07:41:55;;;;;;;9.00;5.43;;;;;;;;;;5125269;27;20385;-66
2021/06/07 07:44:21;;;;;;;11.18;5.68;;;;;;;;;;5108470;28;20450;-66
2021/06/07 07:46:48;;;;;;;10.38;5.75;;;;;;;;;;5110030;28;20065;-68
2021/06/07 07:49:14;;;;;;;9.43;5.45;;;;;;;;;;5109751;28;20052;-68
2021/06/07 07:51:42;;;;;;;8.65;5.13;;;;;;;;;;5100058;28;20533;-67
2021/06/07 07:54:09;;;;;;;9.63;5.47;;;;;;;;;;5106911;28;20062;-67
2021/06/07 07:56:36;;;;;;;15.93;6.45;;;;;;;;;;5105282;28;20027;-68
2021/06/07 07:59:02;;;;;;;9.98;5.22;;;;;;;;;;5107765;28;20494;-67
2021/06/07 08:01:28;;;;;;;10.02;5.95;;;;;;;;;;5108870;28;20035;-67
2021/06/07 08:03:54;;;;;;;8.10;3.95;;;;;;;;;;5109370;28;20184;-67
2021/06/07 08:06:21;;;;;;;7.45;4.35;;;;;;;;;;5109325;28;20430;-67
2021/06/07 08:08:47;;;;;;;8.85;4.25;;;;;;;;;;5106702;28;20031;-68
2021/06/07 08:11:13;;;;;;;6.47;4.20;;;;;;;;;;5103794;28;20089;-68
2021/06/07 08:13:40;;;;;;;9.60;4.30;;;;;;;;;;5107557;28;20102;-67
2021/06/07 08:16:06;;;;;;;7.47;3.75;;;;;;;;;;5106151;28;20029;-67
2021/06/07 08:18:33;;;;;;;7.90;4.05;;;;;;;;;;5108439;28;20024;-67
2021/06/07 08:20:59;;;;;;;6.53;3.42;;;;;;;;;;5108600;28;20039;-67
2021/06/07 08:24:23;;;;;;;8.52;4.05;;;;;;;;;;5125315;27;21152;-66
2021/06/07 08:27:57;;;;;;;10.50;4.13;;;;;;;;;;5125265;27;20370;-68
2021/06/07 08:30:24;;;;;;;8.25;3.92;;;;;;;;;;5109272;28;20111;-68
2021/06/07 08:33:58;;;;;;;7.72;3.80;;;;;;;;;;5125251;27;20381;-67
2021/06/07 08:36:24;;;;;;;9.73;4.18;;;;;;;;;;5108690;28;20055;-67
2021/06/07 08:38:50;;;;;;;8.43;3.63;;;;;;;;;;5108224;28;20020;-69
2021/06/07 08:41:17;;;;;;;9.32;4.22;;;;;;;;;;5109021;28;20027;-69
2021/06/07 08:43:43;;;;;;;8.07;3.88;;;;;;;;;;5104214;28;20024;-68
2021/06/07 08:46:13;;;;;;;6.72;3.67;;;;;;;;;;5108728;28;20020;-69
2021/06/07 08:48:40;;;;;;;8.25;3.58;;;;;;;;;;5106965;28;20383;-70
2021/06/07 08:51:06;;;;;;;8.88;4.10;;;;;;;;;;5094630;28;20026;-70
2021/06/07 08:53:32;;;;;;;6.22;4.13;;;;;;;;;;5077079;28;20028;-70
2021/06/07 08:55:59;;;;;;;8.55;4.53;;;;;;;;;;5072218;28;20553;-70
2021/06/07 08:58:25;;;;;;;7.68;4.03;;;;;;;;;;5072066;28;20028;-70
2021/06/07 09:00:51;;;;;;;6.38;3.92;;;;;;;;;;5066964;28;21374;-70
2021/06/07 09:03:20;;;;;;;7.32;3.67;;;;;;;;;;5065345;28;20024;-69
2021/06/07 09:06:07;;;;;;;5.63;3.80;;;;;;;;;;5121143;27;20408;-70
2021/06/07 09:08:37;;;;;;;5.78;3.50;;;;;;;;;;5109252;28;20027;-72
2021/06/07 09:11:10;;;;;;;14.23;6.05;;;;;;;;;;5108569;28;20035;-70
2021/06/07 09:13:37;;;;;;;9.55;4.70;;;;;;;;;;5109605;28;20494;-68
2021/06/07 09:16:04;;;;;;;6.72;3.65;;;;;;;;;;5108112;28;20039;-69
2021/06/07 09:18:33;;;;;;;8.02;3.70;;;;;;;;;;5108791;28;20027;-68
2021/06/07 09:21:11;;;;;;;13.18;4.25;;;;;;;;;;5109277;28;20023;-68
2021/06/07 09:23:58;;;;;;;6.55;3.95;;;;;;;;;;5108107;28;20478;-69
2021/06/07 09:26:25;;;;;;;7.65;4.07;;;;;;;;;;5086588;28;20077;-67
2021/06/07 09:28:54;;;;;;;6.97;3.97;;;;;;;;;;5078249;28;20020;-68
2021/06/07 09:31:26;;;;;;;10.32;4.18;;;;;;;;;;5083004;28;20080;-68
2021/06/07 09:33:52;;;;;;;8.55;3.53;;;;;;;;;;5074347;28;20454;-67
2021/06/07 09:36:22;;;;;;;6.35;3.53;;;;;;;;;;5079300;28;20031;-68
2021/06/07 09:38:53;;;;;;;6.93;3.40;;;;;;;;;;5080538;28;20028;-68
2021/06/07 09:41:19;;;;;;;6.78;3.55;;;;;;;;;;5074571;28;20024;-68
2021/06/07 09:43:49;;;;;;;6.40;3.70;;;;;;;;;;5068890;28;20024;-69
2021/06/07 09:46:15;;;;;;;7.25;3.63;;;;;;;;;;5091125;28;20042;-68
2021/06/07 09:48:42;;;;;;;11.25;4.53;;;;;;;;;;5104178;28;20047;-69
2021/06/07 09:51:08;;;;;;;8.63;3.65;;;;;;;;;;5105093;28;20055;-68
2021/06/07 09:53:56;;;;;;;6.80;4.10;;;;;;;;;;5107683;28;20024;-67
2021/06/07 09:57:46;;;;;;;6.28;3.85;;;;;;;;;;5118060;27;20128;-69
2021/06/07 10:00:13;;;;;;;7.78;3.70;;;;;;;;;;5106688;28;20564;-69
2021/06/07 10:04:49;;;;;;;6.95;3.55;;;;;;;;;;5121188;27;20422;-68
2021/06/07 10:07:16;;;;;;;6.60;3.75;;;;;;;;;;5104335;28;20058;-67
2021/06/07 10:10:02;;;;;;;6.40;3.42;;;;;;;;;;5107051;28;20680;-67
2021/06/07 10:13:42;;;;;;;5.43;3.40;;;;;;;;;;5122741;27;20381;-67
2021/06/07 10:17:07;;;;;;;7.65;3.38;;;;;;;;;;5122959;27;20468;-67
2021/06/07 10:19:59;;;;;;;9.82;5.25;;;;;;;;;;5106597;28;20096;-67
2021/06/07 10:22:25;;;;;;;7.18;4.10;;;;;;;;;;5107675;28;20022;-67
2021/06/07 10:24:51;;;;;;;6.38;3.70;;;;;;;;;;5105511;28;20078;-70
2021/06/07 10:27:17;;;;;;;5.63;3.67;;;;;;;;;;5099293;28;20039;-69
2021/06/07 10:29:44;;;;;;;8.63;4.18;;;;;;;;;;5085380;28;20557;-71
2021/06/07 10:33:24;;;;;;;5.93;3.13;;;;;;;;;;5100909;27;21035;-71
2021/06/07 10:35:50;;;;;;;9.10;3.97;;;;;;;;;;5092711;28;20349;-70
2021/06/07 10:39:41;;;;;;;5.15;3.20;;;;;;;;;;5100445;27;20635;-71
2021/06/07 10:42:10;;;;;;;6.00;3.72;;;;;;;;;;5108180;28;20068;-71
2021/06/07 10:44:39;;;;;;;6.00;3.47;;;;;;;;;;5108199;28;20112;-71
2021/06/07 10:47:06;;;;;;;6.88;3.45;;;;;;;;;;5106894;28;20019;-71
2021/06/07 10:49:40;;;;;;;9.57;3.58;;;;;;;;;;5106291;28;20509;-71
2021/06/07 10:52:06;;;;;;;6.20;3.70;;;;;;;;;;5103123;28;20383;-73
2021/06/07 10:54:33;;;;;;;8.57;3.50;;;;;;;;;;5108329;28;20024;-71
2021/06/07 10:57:18;;;;;;;6.72;3.88;;;;;;;;;;5107416;28;20035;-75
2021/06/07 10:59:48;;;;;;;5.38;3.58;;;;;;;;;;5109844;28;20041;-73
2021/06/07 11:02:18;;;;;;;5.15;3.10;;;;;;;;;;5108920;28;20383;-71
2021/06/07 11:04:45;;;;;;;7.50;3.47;;;;;;;;;;5108693;28;20140;-72
2021/06/07 11:07:12;;;;;;;6.90;3.50;;;;;;;;;;5106949;28;20020;-71
2021/06/07 11:09:57;;;;;;;6.43;3.50;;;;;;;;;;5108350;28;20020;-70
2021/06/07 11:12:34;;;;;;;4.32;2.97;;;;;;;;;;5105729;28;20020;-71
2021/06/07 11:15:13;;;;;;;5.47;3.35;;;;;;;;;;5123944;27;20830;-68
2021/06/07 11:17:39;;;;;;;7.10;3.20;;;;;;;;;;5108834;28;20486;-70
2021/06/07 11:21:31;;;;;;;6.00;2.88;;;;;;;;;;5124456;27;20863;-68
2021/06/07 11:23:58;;;;;;;6.82;3.45;;;;;;;;;;5107262;28;20051;-68
2021/06/07 11:26:37;;;;;;;6.15;3.22;;;;;;;;;;5107311;28;20027;-68
2021/06/07 11:29:03;;;;;;;5.45;3.53;;;;;;;;;;5107966;28;20012;-69
2021/06/07 11:31:30;;;;;;;6.93;3.75;;;;;;;;;;5108526;28;20331;-69
2021/06/07 11:33:58;;;;;;;6.30;3.50;;;;;;;;;;5109654;28;20031;-70
2021/06/07 11:36:39;;;;;;;5.20;3.40;;;;;;;;;;5109881;28;20038;-69
2021/06/07 11:39:07;;;;;;;5.22;3.33;;;;;;;;;;5106507;28;20055;-69
2021/06/07 11:41:49;;;;;;;5.75;3.50;;;;;;;;;;5109594;28;20051;-70
2021/06/07 11:44:17;;;;;;;5.88;3.35;;;;;;;;;;5108733;28;20014;-70
2021/06/07 11:46:43;;;;;;;6.40;3.72;;;;;;;;;;5109669;28;20031;-70
2021/06/07 11:49:14;;;;;;;6.93;3.80;;;;;;;;;;5108681;28;20525;-70
2021/06/07 11:51:43;;;;;;;7.60;4.00;;;;;;;;;;5108518;28;20395;-71
2021/06/07 11:54:25;;;;;;;12.30;4.53;;;;;;;;;;5109721;28;20077;-70
2021/06/07 11:56:52;;;;;;;6.82;3.38;;;;;;;;;;5109831;28;20360;-70
2021/06/07 12:01:33;;;;;;;4.85;3.60;;;;;;;;;;5125864;27;20737;-69
2021/06/07 12:04:03;;;;;;;6.78;4.07;;;;;;;;;;5109731;28;20046;-69
2021/06/07 12:06:31;;;;;;;6.43;3.55;;;;;;;;;;5108618;28;20418;-69
2021/06/07 12:09:05;;;;;;;9.88;3.92;;;;;;;;;;5099098;28;20031;-69
2021/06/07 12:11:31;;;;;;;9.60;3.47;;;;;;;;;;5076990;28;20419;-69
2021/06/07 12:14:41;;;;;;;6.93;3.45;;;;;;;;;;5102120;27;20385;-69
2021/06/07 12:17:08;;;;;;;5.65;3.42;;;;;;;;;;5109351;28;20030;-70
2021/06/07 12:19:40;;;;;;;7.47;3.92;;;;;;;;;;5110264;28;20027;-70
2021/06/07 12:22:07;;;;;;;6.05;3.30;;;;;;;;;;5109689;28;20023;-70
2021/06/07 12:24:34;;;;;;;7.28;2.95;;;;;;;;;;5110299;28;20099;-70
2021/06/07 12:29:47;;;;;;;7.13;3.55;;;;;;;;;;5110378;28;20055;-69
2021/06/07 12:32:13;;;;;;;6.82;3.70;;;;;;;;;;5110044;28;20479;-70
2021/06/07 12:34:58;;;;;;;4.22;2.90;;;;;;;;;;5110253;28;20035;-69
2021/06/07 12:37:35;;;;;;;7.53;4.10;;;;;;;;;;5106286;28;20069;-70
2021/06/07 12:40:10;;;;;;;4.85;3.20;;;;;;;;;;5108436;28;20456;-71
2021/06/07 12:42:37;;;;;;;6.65;3.45;;;;;;;;;;5109609;28;20027;-71
2021/06/07 12:46:48;;;;;;;8.70;4.03;;;;;;;;;;5126177;27;20381;-71
2021/06/07 12:49:25;;;;;;;6.10;3.92;;;;;;;;;;5110148;28;20032;-69
2021/06/07 12:51:58;;;;;;;6.90;4.20;;;;;;;;;;5109924;28;20496;-70
2021/06/07 12:54:24;;;;;;;8.52;4.10;;;;;;;;;;5110344;28;20019;-69
2021/06/07 12:56:51;;;;;;;5.90;3.35;;;;;;;;;;5109491;28;20024;-70
2021/06/07 12:59:17;;;;;;;7.20;3.58;;;;;;;;;;5109976;28;20020;-69
2021/06/07 13:01:47;;;;;;;7.35;4.60;;;;;;;;;;5110102;28;20047;-69
2021/06/07 13:04:13;;;;;;;6.55;3.88;;;;;;;;;;5109767;28;20046;-68
2021/06/07 13:06:49;;;;;;;9.60;3.60;;;;;;;;;;5110172;28;20050;-70
2021/06/07 13:09:15;;;;;;;7.63;3.95;;;;;;;;;;5108680;28;20051;-69
2021/06/07 13:11:43;;;;;;;6.13;3.75;;;;;;;;;;5109729;28;20020;-70
2021/06/07 13:16:09;;;;;;;6.05;2.90;;;;;;;;;;5126570;27;20836;-70
2021/06/07 13:20:14;;;;;;;5.22;3.00;;;;;;;;;;5126109;27;20379;-70
2021/06/07 13:22:40;;;;;;;5.03;3.22;;;;;;;;;;5110509;28;20558;-70
2021/06/07 13:25:14;;;;;;;5.65;3.03;;;;;;;;;;5108704;28;20437;-69
2021/06/07 13:27:41;;;;;;;8.73;2.88;;;;;;;;;;5110354;28;20460;-70
2021/06/07 13:30:08;;;;;;;4.40;2.72;;;;;;;;;;5110667;28;20027;-70
2021/06/07 13:32:35;;;;;;;4.28;2.38;;;;;;;;;;5110098;28;20091;-71
2021/06/07 13:35:04;;;;;;;5.57;2.63;;;;;;;;;;5110401;28;20056;-71
2021/06/07 13:37:32;;;;;;;5.05;2.47;;;;;;;;;;5110256;28;20446;-70
2021/06/07 13:40:00;;;;;;;3.78;2.22;;;;;;;;;;5109767;28;20502;-70
2021/06/07 13:42:37;;;;;;;3.55;2.10;;;;;;;;;;5110098;28;20023;-70
2021/06/07 13:45:04;;;;;;;6.65;2.80;;;;;;;;;;5110173;28;20028;-69
2021/06/07 13:47:56;;;;;;;6.35;2.50;;;;;;;;;;5125921;27;20432;-70
2021/06/07 13:50:23;;;;;;;5.07;2.45;;;;;;;;;;5110449;28;20028;-70
2021/06/07 13:52:54;;;;;;;7.30;2.60;;;;;;;;;;5110398;28;20044;-71
2021/06/07 13:55:28;;;;;;;5.80;2.77;;;;;;;;;;5110955;28;20028;-71
2021/06/07 13:59:22;;;;;;;7.57;2.60;;;;;;;;;;5126313;27;20404;-72
2021/06/07 14:01:52;;;;;;;4.43;1.95;;;;;;;;;;5108544;28;20248;-71
2021/06/07 14:04:18;;;;;;;4.38;2.38;;;;;;;;;;5110737;28;20031;-70
2021/06/07 14:06:48;;;;;;;4.35;1.92;;;;;;;;;;5110434;28;20468;-70
2021/06/07 14:09:16;;;;;;;3.92;2.10;;;;;;;;;;5109964;28;20024;-69
2021/06/07 14:11:46;;;;;;;7.28;2.50;;;;;;;;;;5108993;28;20023;-70
2021/06/07 14:14:17;;;;;;;6.55;2.47;;;;;;;;;;5110449;28;20055;-71
2021/06/07 14:16:43;;;;;;;7.57;2.92;;;;;;;;;;5110397;28;20016;-70
2021/06/07 14:19:09;;;;;;;4.85;2.45;;;;;;;;;;5110249;28;20435;-69
2021/06/07 14:21:45;;;;;;;5.88;3.47;;;;;;;;;;5108442;28;20027;-70
2021/06/07 14:28:14;;;;;;;5.80;2.88;;;;;;;;;;5125943;27;20465;-70
2021/06/07 14:30:41;;;;;;;7.93;3.45;;;;;;;;;;5109183;28;20032;-70
2021/06/07 14:33:08;;;;;;;7.00;3.15;;;;;;;;;;5110452;28;20027;-71
2021/06/07 14:35:34;;;;;;;6.05;2.83;;;;;;;;;;5110308;28;20115;-71
2021/06/07 14:38:02;;;;;;;6.78;3.55;;;;;;;;;;5110532;28;20020;-72
2021/06/07 14:40:28;;;;;;;5.93;3.00;;;;;;;;;;5109058;28;20427;-71
2021/06/07 14:42:55;;;;;;;5.15;2.72;;;;;;;;;;5109920;28;20471;-71
2021/06/07 14:45:21;;;;;;;7.38;2.83;;;;;;;;;;5110439;28;20396;-71
2021/06/07 14:47:48;;;;;;;6.10;3.00;;;;;;;;;;5109388;28;20398;-71
2021/06/07 14:50:14;;;;;;;7.25;3.50;;;;;;;;;;5109798;28;20076;-71
2021/06/07 14:52:40;;;;;;;7.20;3.13;;;;;;;;;;5108874;28;20023;-72
2021/06/07 14:55:07;;;;;;;8.57;3.88;;;;;;;;;;5110269;28;20049;-72
2021/06/07 14:57:34;;;;;;;6.40;3.22;;;;;;;;;;5109738;28;20081;-74
2021/06/07 15:00:00;;;;;;;6.75;3.55;;;;;;;;;;5109881;28;20482;-71
2021/06/07 15:02:26;;;;;;;10.63;3.17;;;;;;;;;;5109748;28;20526;-73
2021/06/07 15:04:52;;;;;;;6.70;3.33;;;;;;;;;;5108278;28;20031;-71
2021/06/07 15:07:19;;;;;;;10.45;4.00;;;;;;;;;;5109775;28;20483;-71
2021/06/07 15:09:46;;;;;;;6.72;3.70;;;;;;;;;;5108525;28;20039;-71
2021/06/07 15:12:12;;;;;;;6.60;3.40;;;;;;;;;;5109394;28;20096;-70
2021/06/07 15:14:38;;;;;;;7.72;4.38;;;;;;;;;;5109827;28;20429;-70
2021/06/07 15:17:05;;;;;;;7.38;3.58;;;;;;;;;;5109783;28;20027;-69
2021/06/07 15:19:31;;;;;;;7.30;3.60;;;;;;;;;;5109015;28;20077;-70
2021/06/07 15:21:57;;;;;;;6.95;3.30;;;;;;;;;;5109504;28;20028;-70
2021/06/07 15:24:23;;;;;;;6.20;3.42;;;;;;;;;;5109110;28;20463;-69
2021/06/07 15:26:49;;;;;;;10.20;3.95;;;;;;;;;;5109077;28;20079;-71
2021/06/07 15:31:23;;;;;;;8.65;4.00;;;;;;;;;;5126176;27;20373;-69
2021/06/07 15:33:49;;;;;;;7.45;4.10;;;;;;;;;;5110488;28;20024;-70
2021/06/07 15:36:16;;;;;;;10.15;4.70;;;;;;;;;;5110542;28;20032;-69
2021/06/07 15:38:43;;;;;;;11.32;4.43;;;;;;;;;;5109975;28;20051;-70
2021/06/07 15:41:16;;;;;;;7.40;4.65;;;;;;;;;;5110290;28;20475;-69
2021/06/07 15:43:44;;;;;;;7.82;4.00;;;;;;;;;;5110285;28;20480;-70
2021/06/07 15:46:14;;;;;;;12.02;4.80;;;;;;;;;;5109926;28;20026;-70
2021/06/07 15:48:41;;;;;;;10.30;4.47;;;;;;;;;;5108926;28;20028;-70
2021/06/07 15:51:08;;;;;;;10.02;4.10;;;;;;;;;;5110010;28;20361;-71
2021/06/07 15:53:35;;;;;;;8.07;3.95;;;;;;;;;;5108345;28;20024;-71
2021/06/07 15:56:02;;;;;;;9.57;4.13;;;;;;;;;;5110205;28;20089;-71
2021/06/07 15:58:28;;;;;;;9.15;4.20;;;;;;;;;;5110055;28;20042;-70
2021/06/07 16:00:59;;;;;;;6.05;4.35;;;;;;;;;;5109399;28;20395;-71
2021/06/07 16:03:25;;;;;;;8.43;4.20;;;;;;;;;;5109863;28;20154;-71
2021/06/07 16:05:51;;;;;;;6.72;4.35;;;;;;;;;;5109750;28;20030;-71
2021/06/07 16:08:18;;;;;;;6.38;3.60;;;;;;;;;;5109566;28;20024;-71
2021/06/07 16:10:44;;;;;;;6.38;4.03;;;;;;;;;;5109669;28;20043;-70